METAR Data
IDs: Format: Raw Decoded Include TAF

Data at: 2018 UTC 17 Nov 2019

KVIH 171953Z AUTO 25008KT 10SM FEW055 OVC070 09/M01 A2992 RMK AO2 SLP135 T00941006
KVIH 171853Z AUTO 24011KT 10SM OVC095 10/M01 A2994 RMK AO2 SLP140 T01001011
KVIH 171753Z AUTO 21011KT 10SM FEW120 10/M01 A2997 RMK AO2 SLP153 T01001011 10100 20044 58017
KVIH 171653Z AUTO 20010KT 10SM CLR 09/M01 A2999 RMK AO2 SLP160 T00891006
KVIH 171553Z AUTO 20010KT 10SM CLR 08/00 A3001 RMK AO2 SLP167 T00830000
KVIH 171453Z AUTO 19009KT 10SM CLR 06/00 A3002 RMK AO2 SLP171 T00610000 58007
KVIH 171353Z AUTO 19010KT 10SM CLR 05/M01 A3004 RMK AO2 SLP177 T00501006
KVIH 171253Z AUTO 19010KT 10SM CLR 04/M01 A3003 RMK AO2 SLP174 T00441006
KVIH 171153Z AUTO 20009KT 10SM CLR 04/M01 A3004 RMK AO2 SLP178 T00441006 10050 20028 58013
KVIH 171053Z AUTO 19010KT 10SM CLR 05/M01 A3006 RMK AO2 SLP181 T00501006
KVIH 170953Z AUTO 18009KT 10SM CLR 05/M01 A3007 RMK AO2 SLP184 T00501006
KVIH 170853Z AUTO 17008KT 10SM CLR 04/M01 A3008 RMK AO2 SLP189 T00391006 56015
KVIH 170753Z AUTO 18007KT 10SM CLR 03/M01 A3010 RMK AO2 SLP195 T00331011
KVIH 170653Z AUTO 14009KT 10SM CLR 04/M01 A3010 RMK AO2 SLP194 T00391011
KVIH 170553Z AUTO 18004KT 10SM CLR 03/M01 A3013 RMK AO2 SLP206 T00281011 10067 20028 401281017 53002
KVIH 170453Z AUTO 12008KT 10SM CLR 03/M01 A3012 RMK AO2 SLP205 T00281011
KVIH 170353Z AUTO 12007KT 10SM CLR 04/M01 A3012 RMK AO2 SLP204 T00391011
KVIH 170253Z AUTO 12007KT 10SM CLR 04/M01 A3012 RMK AO2 SLP206 T00391011 58004
KVIH 170153Z AUTO 12007KT 10SM CLR 06/M01 A3013 RMK AO2 SLP209 T00561011
KVIH 170053Z AUTO 12006KT 10SM CLR 06/M01 A3013 RMK AO2 SLP211 T00611011
KVIH 162353Z AUTO 11005KT 10SM CLR 05/M02 A3013 RMK AO2 SLP212 T00501017 10128 20050 56011
KVIH 162253Z AUTO 10004KT 10SM CLR 08/M01 A3014 RMK AO2 SLP213 T00831011
KVIH 162153Z AUTO 11005KT 10SM CLR 12/M01 A3015 RMK AO2 SLP215 T01221006
KVIH 162053Z AUTO 11006KT 10SM CLR 12/M01 A3017 RMK AO2 SLP220 T01221006 56028
KVIH 161953Z AUTO 10SM CLR 12/00 A3020 RMK AO2 SLP230 T01220000
KVIH 161853Z AUTO 20003KT 10SM CLR 11/00 A3022 RMK AO2 SLP239 T01110000
KVIH 161753Z AUTO 15006KT 10SM CLR 10/00 A3025 RMK AO2 SLP250 T01000000 10100 21011 58020
KVIH 161653Z AUTO 11004KT 10SM CLR 08/M01 A3029 RMK AO2 SLP264 T00781011
KVIH 161553Z AUTO 11010KT 10SM CLR 05/M03 A3031 RMK AO2 SLP272 T00501033
KVIH 161453Z AUTO 11009KT 10SM CLR 03/M04 A3032 RMK AO2 SLP275 T00331039 51001
KVIH 161353Z AUTO 11009KT 10SM CLR 01/M06 A3031 RMK AO2 SLP275 T00111056
KVIH 161253Z AUTO 11009KT 10SM CLR M01/M07 A3032 RMK AO2 SLP277 T10061067
KVIH 161153Z AUTO 11007KT 10SM CLR M01/M07 A3031 RMK AO2 SLP275 T10061067 10000 21017 50002
KVIH 161053Z AUTO 11007KT 10SM CLR M01/M07 A3032 RMK AO2 SLP275 T10111072
KVIH 160953Z AUTO 13005KT 10SM CLR M01/M07 A3031 RMK AO2 SLP271 T10111072
KVIH 160853Z AUTO 12006KT 10SM CLR M01/M07 A3031 RMK AO2 SLP269 T10061072 58008